sensor_id;sensor_type;location;lat;lon;timestamp;P1;durP1;ratioP1;P2;durP2;ratioP2
43327;SDS011;28923;45.412;10.852;2023-04-25T00:01:03;0.85;;;0.60;;
43327;SDS011;28923;45.412;10.852;2023-04-25T00:03:30;0.47;;;0.30;;
43327;SDS011;28923;45.412;10.852;2023-04-25T00:05:55;0.32;;;0.30;;
43327;SDS011;28923;45.412;10.852;2023-04-25T00:08:22;0.55;;;0.47;;
43327;SDS011;28923;45.412;10.852;2023-04-25T00:10:47;0.40;;;0.30;;
43327;SDS011;28923;45.412;10.852;2023-04-25T00:13:14;1.23;;;0.40;;
43327;SDS011;28923;45.412;10.852;2023-04-25T00:15:42;0.60;;;0.40;;
43327;SDS011;28923;45.412;10.852;2023-04-25T00:18:07;0.50;;;0.40;;
43327;SDS011;28923;45.412;10.852;2023-04-25T00:20:34;0.40;;;0.30;;
43327;SDS011;28923;45.412;10.852;2023-04-25T00:23:00;0.30;;;0.30;;
43327;SDS011;28923;45.412;10.852;2023-04-25T00:25:26;0.50;;;0.40;;
43327;SDS011;28923;45.412;10.852;2023-04-25T00:27:51;0.63;;;0.30;;
43327;SDS011;28923;45.412;10.852;2023-04-25T00:30:16;0.65;;;0.40;;
43327;SDS011;28923;45.412;10.852;2023-04-25T00:32:42;0.30;;;0.30;;
43327;SDS011;28923;45.412;10.852;2023-04-25T00:35:08;0.30;;;0.22;;
43327;SDS011;28923;45.412;10.852;2023-04-25T00:37:34;0.45;;;0.40;;
43327;SDS011;28923;45.412;10.852;2023-04-25T00:40:00;0.32;;;0.30;;
43327;SDS011;28923;45.412;10.852;2023-04-25T00:42:25;0.30;;;0.30;;
43327;SDS011;28923;45.412;10.852;2023-04-25T00:44:51;0.22;;;0.20;;
43327;SDS011;28923;45.412;10.852;2023-04-25T00:47:17;0.77;;;0.40;;
43327;SDS011;28923;45.412;10.852;2023-04-25T00:49:42;0.55;;;0.30;;
43327;SDS011;28923;45.412;10.852;2023-04-25T00:52:08;0.65;;;0.32;;
43327;SDS011;28923;45.412;10.852;2023-04-25T00:54:34;0.30;;;0.30;;
43327;SDS011;28923;45.412;10.852;2023-04-25T00:56:59;0.40;;;0.35;;
43327;SDS011;28923;45.412;10.852;2023-04-25T00:59:26;0.35;;;0.30;;
43327;SDS011;28923;45.412;10.852;2023-04-25T01:01:53;0.30;;;0.30;;
43327;SDS011;28923;45.412;10.852;2023-04-25T01:04:18;0.28;;;0.20;;
43327;SDS011;28923;45.412;10.852;2023-04-25T01:06:44;0.20;;;0.15;;
43327;SDS011;28923;45.412;10.852;2023-04-25T01:09:10;0.30;;;0.30;;
43327;SDS011;28923;45.412;10.852;2023-04-25T01:11:35;0.17;;;0.17;;
43327;SDS011;28923;45.412;10.852;2023-04-25T01:14:00;0.65;;;0.35;;
43327;SDS011;28923;45.412;10.852;2023-04-25T01:16:27;0.47;;;0.20;;
43327;SDS011;28923;45.412;10.852;2023-04-25T01:18:53;0.20;;;0.20;;
43327;SDS011;28923;45.412;10.852;2023-04-25T01:21:19;0.30;;;0.20;;
43327;SDS011;28923;45.412;10.852;2023-04-25T01:23:46;0.30;;;0.20;;
43327;SDS011;28923;45.412;10.852;2023-04-25T01:26:12;0.15;;;0.15;;
43327;SDS011;28923;45.412;10.852;2023-04-25T01:28:38;0.25;;;0.22;;
43327;SDS011;28923;45.412;10.852;2023-04-25T01:31:06;0.10;;;0.10;;
43327;SDS011;28923;45.412;10.852;2023-04-25T01:33:32;0.10;;;0.10;;
43327;SDS011;28923;45.412;10.852;2023-04-25T01:35:57;0.10;;;0.10;;
43327;SDS011;28923;45.412;10.852;2023-04-25T01:38:23;0.28;;;0.25;;
43327;SDS011;28923;45.412;10.852;2023-04-25T01:40:49;0.20;;;0.20;;
43327;SDS011;28923;45.412;10.852;2023-04-25T01:43:17;0.93;;;0.20;;
43327;SDS011;28923;45.412;10.852;2023-04-25T01:45:43;0.50;;;0.30;;
43327;SDS011;28923;45.412;10.852;2023-04-25T01:48:10;0.20;;;0.20;;
43327;SDS011;28923;45.412;10.852;2023-04-25T01:50:37;0.82;;;0.30;;
43327;SDS011;28923;45.412;10.852;2023-04-25T01:53:02;0.35;;;0.20;;
43327;SDS011;28923;45.412;10.852;2023-04-25T01:55:28;0.75;;;0.17;;
43327;SDS011;28923;45.412;10.852;2023-04-25T01:58:09;0.20;;;0.20;;
43327;SDS011;28923;45.412;10.852;2023-04-25T02:00:54;0.20;;;0.20;;
43327;SDS011;28923;45.412;10.852;2023-04-25T02:03:19;0.20;;;0.20;;
43327;SDS011;28923;45.412;10.852;2023-04-25T02:05:45;0.20;;;0.20;;
43327;SDS011;28923;45.412;10.852;2023-04-25T02:08:11;0.45;;;0.20;;
43327;SDS011;28923;45.412;10.852;2023-04-25T02:10:37;1.05;;;0.40;;
43327;SDS011;28923;45.412;10.852;2023-04-25T02:13:09;0.20;;;0.20;;
43327;SDS011;28923;45.412;10.852;2023-04-25T02:15:53;0.60;;;0.20;;
43327;SDS011;28923;45.412;10.852;2023-04-25T02:18:19;0.30;;;0.10;;
43327;SDS011;28923;45.412;10.852;2023-04-25T02:20:46;0.32;;;0.10;;
43327;SDS011;28923;45.412;10.852;2023-04-25T02:23:11;0.20;;;0.20;;
43327;SDS011;28923;45.412;10.852;2023-04-25T02:25:37;0.85;;;0.20;;
43327;SDS011;28923;45.412;10.852;2023-04-25T02:28:02;0.20;;;0.10;;
43327;SDS011;28923;45.412;10.852;2023-04-25T02:30:28;0.22;;;0.10;;
43327;SDS011;28923;45.412;10.852;2023-04-25T02:32:53;0.17;;;0.10;;
43327;SDS011;28923;45.412;10.852;2023-04-25T02:35:19;0.10;;;0.10;;
43327;SDS011;28923;45.412;10.852;2023-04-25T02:37:44;0.28;;;0.28;;
43327;SDS011;28923;45.412;10.852;2023-04-25T02:40:12;0.20;;;0.20;;
43327;SDS011;28923;45.412;10.852;2023-04-25T02:42:37;0.40;;;0.20;;
43327;SDS011;28923;45.412;10.852;2023-04-25T02:45:03;0.47;;;0.20;;
43327;SDS011;28923;45.412;10.852;2023-04-25T02:47:28;0.10;;;0.10;;
43327;SDS011;28923;45.412;10.852;2023-04-25T02:49:54;0.15;;;0.15;;
43327;SDS011;28923;45.412;10.852;2023-04-25T02:52:19;0.10;;;0.10;;
43327;SDS011;28923;45.412;10.852;2023-04-25T02:54:53;0.35;;;0.20;;
43327;SDS011;28923;45.412;10.852;2023-04-25T02:57:19;0.30;;;0.20;;
43327;SDS011;28923;45.412;10.852;2023-04-25T02:59:44;0.17;;;0.15;;
43327;SDS011;28923;45.412;10.852;2023-04-25T03:02:10;0.10;;;0.10;;
43327;SDS011;28923;45.412;10.852;2023-04-25T03:04:35;0.40;;;0.20;;
43327;SDS011;28923;45.412;10.852;2023-04-25T03:07:01;0.20;;;0.10;;
43327;SDS011;28923;45.412;10.852;2023-04-25T03:09:26;0.10;;;0.10;;
43327;SDS011;28923;45.412;10.852;2023-04-25T03:11:52;0.20;;;0.17;;
43327;SDS011;28923;45.412;10.852;2023-04-25T03:14:17;0.95;;;0.10;;
43327;SDS011;28923;45.412;10.852;2023-04-25T03:16:43;0.10;;;0.10;;
43327;SDS011;28923;45.412;10.852;2023-04-25T03:19:08;0.10;;;0.10;;
43327;SDS011;28923;45.412;10.852;2023-04-25T03:21:34;0.10;;;0.10;;
43327;SDS011;28923;45.412;10.852;2023-04-25T03:24:00;0.30;;;0.20;;
43327;SDS011;28923;45.412;10.852;2023-04-25T03:26:26;0.35;;;0.20;;
43327;SDS011;28923;45.412;10.852;2023-04-25T03:28:51;0.80;;;0.20;;
43327;SDS011;28923;45.412;10.852;2023-04-25T03:31:17;0.10;;;0.10;;
43327;SDS011;28923;45.412;10.852;2023-04-25T03:33:42;0.10;;;0.10;;
43327;SDS011;28923;45.412;10.852;2023-04-25T03:36:08;0.93;;;0.10;;
43327;SDS011;28923;45.412;10.852;2023-04-25T03:38:35;0.20;;;0.20;;
43327;SDS011;28923;45.412;10.852;2023-04-25T03:41:00;0.30;;;0.10;;
43327;SDS011;28923;45.412;10.852;2023-04-25T03:43:36;0.20;;;0.10;;
43327;SDS011;28923;45.412;10.852;2023-04-25T03:46:06;0.05;;;0.03;;
43327;SDS011;28923;45.412;10.852;2023-04-25T03:48:31;0.20;;;0.10;;
43327;SDS011;28923;45.412;10.852;2023-04-25T03:50:57;0.00;;;0.00;;
43327;SDS011;28923;45.412;10.852;2023-04-25T03:53:23;0.10;;;0.10;;
43327;SDS011;28923;45.412;10.852;2023-04-25T03:56:27;0.10;;;0.10;;
43327;SDS011;28923;45.412;10.852;2023-04-25T03:59:00;0.28;;;0.17;;
43327;SDS011;28923;45.412;10.852;2023-04-25T04:01:28;0.38;;;0.20;;
43327;SDS011;28923;45.412;10.852;2023-04-25T04:03:53;0.20;;;0.10;;
43327;SDS011;28923;45.412;10.852;2023-04-25T04:06:19;0.15;;;0.15;;
43327;SDS011;28923;45.412;10.852;2023-04-25T04:08:49;0.20;;;0.10;;
43327;SDS011;28923;45.412;10.852;2023-04-25T04:11:14;0.17;;;0.10;;
43327;SDS011;28923;45.412;10.852;2023-04-25T04:13:40;0.43;;;0.10;;
43327;SDS011;28923;45.412;10.852;2023-04-25T04:16:06;0.65;;;0.20;;
43327;SDS011;28923;45.412;10.852;2023-04-25T04:18:32;0.60;;;0.10;;
43327;SDS011;28923;45.412;10.852;2023-04-25T04:20:58;0.10;;;0.10;;
43327;SDS011;28923;45.412;10.852;2023-04-25T04:23:24;0.45;;;0.25;;
43327;SDS011;28923;45.412;10.852;2023-04-25T04:25:50;0.10;;;0.10;;
43327;SDS011;28923;45.412;10.852;2023-04-25T04:28:42;0.28;;;0.10;;
43327;SDS011;28923;45.412;10.852;2023-04-25T04:31:20;0.10;;;0.10;;
43327;SDS011;28923;45.412;10.852;2023-04-25T04:33:46;0.52;;;0.25;;
43327;SDS011;28923;45.412;10.852;2023-04-25T04:36:13;0.00;;;0.00;;
43327;SDS011;28923;45.412;10.852;2023-04-25T04:38:39;0.17;;;0.10;;
43327;SDS011;28923;45.412;10.852;2023-04-25T04:41:07;0.10;;;0.10;;
43327;SDS011;28923;45.412;10.852;2023-04-25T04:43:59;0.10;;;0.10;;
43327;SDS011;28923;45.412;10.852;2023-04-25T04:49:20;0.20;;;0.10;;
43327;SDS011;28923;45.412;10.852;2023-04-25T04:52:17;0.00;;;0.00;;
43327;SDS011;28923;45.412;10.852;2023-04-25T04:55:03;0.30;;;0.30;;
43327;SDS011;28923;45.412;10.852;2023-04-25T04:57:55;0.70;;;0.15;;
43327;SDS011;28923;45.412;10.852;2023-04-25T05:00:45;1.35;;;0.20;;
43327;SDS011;28923;45.412;10.852;2023-04-25T05:03:27;0.40;;;0.20;;
43327;SDS011;28923;45.412;10.852;2023-04-25T05:06:23;0.20;;;0.20;;
43327;SDS011;28923;45.412;10.852;2023-04-25T05:09:06;0.50;;;0.40;;
43327;SDS011;28923;45.412;10.852;2023-04-25T05:11:55;0.65;;;0.28;;
43327;SDS011;28923;45.412;10.852;2023-04-25T05:14:36;0.30;;;0.30;;
43327;SDS011;28923;45.412;10.852;2023-04-25T05:17:11;0.80;;;0.28;;
43327;SDS011;28923;45.412;10.852;2023-04-25T05:20:07;0.30;;;0.30;;
43327;SDS011;28923;45.412;10.852;2023-04-25T05:23:03;1.58;;;0.38;;
43327;SDS011;28923;45.412;10.852;2023-04-25T05:25:58;0.80;;;0.40;;
43327;SDS011;28923;45.412;10.852;2023-04-25T05:28:59;1.60;;;0.45;;
43327;SDS011;28923;45.412;10.852;2023-04-25T05:31:53;5.45;;;0.85;;
43327;SDS011;28923;45.412;10.852;2023-04-25T05:34:18;4.30;;;0.50;;
43327;SDS011;28923;45.412;10.852;2023-04-25T05:36:59;2.30;;;0.68;;
43327;SDS011;28923;45.412;10.852;2023-04-25T05:39:25;1.48;;;0.40;;
43327;SDS011;28923;45.412;10.852;2023-04-25T05:41:51;3.47;;;0.65;;
43327;SDS011;28923;45.412;10.852;2023-04-25T05:44:35;2.60;;;0.68;;
43327;SDS011;28923;45.412;10.852;2023-04-25T05:47:14;4.13;;;0.73;;
43327;SDS011;28923;45.412;10.852;2023-04-25T05:49:58;1.80;;;0.50;;
43327;SDS011;28923;45.412;10.852;2023-04-25T05:52:40;0.70;;;0.35;;
43327;SDS011;28923;45.412;10.852;2023-04-25T05:55:28;2.15;;;0.32;;
43327;SDS011;28923;45.412;10.852;2023-04-25T05:57:53;2.30;;;0.70;;
43327;SDS011;28923;45.412;10.852;2023-04-25T06:00:19;1.98;;;0.40;;
43327;SDS011;28923;45.412;10.852;2023-04-25T06:02:48;1.75;;;0.40;;
43327;SDS011;28923;45.412;10.852;2023-04-25T06:05:13;0.95;;;0.40;;
43327;SDS011;28923;45.412;10.852;2023-04-25T06:07:39;1.77;;;0.40;;
43327;SDS011;28923;45.412;10.852;2023-04-25T06:10:05;1.10;;;0.40;;
43327;SDS011;28923;45.412;10.852;2023-04-25T06:12:34;3.08;;;0.57;;
43327;SDS011;28923;45.412;10.852;2023-04-25T06:15:00;3.00;;;0.50;;
43327;SDS011;28923;45.412;10.852;2023-04-25T06:17:26;1.90;;;0.25;;
43327;SDS011;28923;45.412;10.852;2023-04-25T06:19:51;0.82;;;0.40;;
43327;SDS011;28923;45.412;10.852;2023-04-25T06:22:17;1.65;;;0.40;;
43327;SDS011;28923;45.412;10.852;2023-04-25T06:24:42;1.98;;;0.40;;
43327;SDS011;28923;45.412;10.852;2023-04-25T06:27:08;2.78;;;0.52;;
43327;SDS011;28923;45.412;10.852;2023-04-25T06:29:33;2.92;;;0.43;;
43327;SDS011;28923;45.412;10.852;2023-04-25T06:31:59;1.08;;;0.50;;
43327;SDS011;28923;45.412;10.852;2023-04-25T06:34:24;1.08;;;0.30;;
43327;SDS011;28923;45.412;10.852;2023-04-25T06:36:50;3.13;;;0.60;;
43327;SDS011;28923;45.412;10.852;2023-04-25T06:39:15;0.50;;;0.30;;
43327;SDS011;28923;45.412;10.852;2023-04-25T06:41:41;3.75;;;0.50;;
43327;SDS011;28923;45.412;10.852;2023-04-25T06:44:13;0.95;;;0.40;;
43327;SDS011;28923;45.412;10.852;2023-04-25T06:46:48;2.10;;;0.45;;
43327;SDS011;28923;45.412;10.852;2023-04-25T06:49:14;1.13;;;0.45;;
43327;SDS011;28923;45.412;10.852;2023-04-25T06:51:40;3.20;;;0.40;;
43327;SDS011;28923;45.412;10.852;2023-04-25T06:54:05;1.60;;;0.43;;
43327;SDS011;28923;45.412;10.852;2023-04-25T06:56:39;1.20;;;0.55;;
43327;SDS011;28923;45.412;10.852;2023-04-25T06:59:10;0.88;;;0.40;;
43327;SDS011;28923;45.412;10.852;2023-04-25T07:01:37;2.72;;;0.50;;
43327;SDS011;28923;45.412;10.852;2023-04-25T07:04:07;3.22;;;0.52;;
43327;SDS011;28923;45.412;10.852;2023-04-25T07:06:37;1.23;;;0.70;;
43327;SDS011;28923;45.412;10.852;2023-04-25T07:09:08;1.10;;;0.20;;
43327;SDS011;28923;45.412;10.852;2023-04-25T07:11:34;0.90;;;0.65;;
43327;SDS011;28923;45.412;10.852;2023-04-25T07:14:00;1.27;;;0.35;;
43327;SDS011;28923;45.412;10.852;2023-04-25T07:16:26;3.83;;;0.50;;
43327;SDS011;28923;45.412;10.852;2023-04-25T07:18:52;2.55;;;0.50;;
43327;SDS011;28923;45.412;10.852;2023-04-25T07:21:18;3.90;;;0.57;;
43327;SDS011;28923;45.412;10.852;2023-04-25T07:23:44;4.10;;;0.55;;
43327;SDS011;28923;45.412;10.852;2023-04-25T07:26:14;1.75;;;0.32;;
43327;SDS011;28923;45.412;10.852;2023-04-25T07:28:58;4.05;;;0.50;;
43327;SDS011;28923;45.412;10.852;2023-04-25T07:31:24;3.05;;;0.65;;
43327;SDS011;28923;45.412;10.852;2023-04-25T07:33:50;5.07;;;0.73;;
43327;SDS011;28923;45.412;10.852;2023-04-25T07:36:16;3.63;;;0.65;;
43327;SDS011;28923;45.412;10.852;2023-04-25T07:38:41;3.47;;;0.60;;
43327;SDS011;28923;45.412;10.852;2023-04-25T07:41:07;1.95;;;0.57;;
43327;SDS011;28923;45.412;10.852;2023-04-25T07:43:32;2.42;;;0.80;;
43327;SDS011;28923;45.412;10.852;2023-04-25T07:45:58;3.83;;;0.50;;
43327;SDS011;28923;45.412;10.852;2023-04-25T07:48:26;1.92;;;0.60;;
43327;SDS011;28923;45.412;10.852;2023-04-25T07:50:52;3.05;;;0.65;;
43327;SDS011;28923;45.412;10.852;2023-04-25T07:53:18;2.50;;;0.50;;
43327;SDS011;28923;45.412;10.852;2023-04-25T07:55:50;8.45;;;0.80;;
43327;SDS011;28923;45.412;10.852;2023-04-25T07:58:17;6.03;;;0.75;;
43327;SDS011;28923;45.412;10.852;2023-04-25T08:00:48;2.33;;;0.80;;
43327;SDS011;28923;45.412;10.852;2023-04-25T08:03:46;4.43;;;0.85;;
43327;SDS011;28923;45.412;10.852;2023-04-25T08:06:20;4.47;;;1.02;;
43327;SDS011;28923;45.412;10.852;2023-04-25T08:08:55;7.05;;;0.93;;
43327;SDS011;28923;45.412;10.852;2023-04-25T08:11:24;5.25;;;0.82;;
43327;SDS011;28923;45.412;10.852;2023-04-25T08:13:50;4.55;;;0.80;;
43327;SDS011;28923;45.412;10.852;2023-04-25T08:16:16;3.72;;;0.77;;
43327;SDS011;28923;45.412;10.852;2023-04-25T08:18:41;3.75;;;0.63;;
43327;SDS011;28923;45.412;10.852;2023-04-25T08:21:08;3.90;;;0.68;;
43327;SDS011;28923;45.412;10.852;2023-04-25T08:23:36;5.55;;;0.93;;
43327;SDS011;28923;45.412;10.852;2023-04-25T08:26:07;6.60;;;1.02;;
43327;SDS011;28923;45.412;10.852;2023-04-25T08:28:36;4.50;;;1.27;;
43327;SDS011;28923;45.412;10.852;2023-04-25T08:31:01;3.78;;;0.98;;
43327;SDS011;28923;45.412;10.852;2023-04-25T08:33:33;7.57;;;1.45;;
43327;SDS011;28923;45.412;10.852;2023-04-25T08:36:21;2.72;;;1.00;;
43327;SDS011;28923;45.412;10.852;2023-04-25T08:38:47;4.63;;;1.42;;
43327;SDS011;28923;45.412;10.852;2023-04-25T08:41:13;2.65;;;1.00;;
43327;SDS011;28923;45.412;10.852;2023-04-25T08:43:38;4.15;;;1.25;;
43327;SDS011;28923;45.412;10.852;2023-04-25T08:46:07;2.17;;;0.93;;
43327;SDS011;28923;45.412;10.852;2023-04-25T08:48:44;4.30;;;1.10;;
43327;SDS011;28923;45.412;10.852;2023-04-25T08:51:10;2.83;;;1.20;;
43327;SDS011;28923;45.412;10.852;2023-04-25T08:53:40;3.78;;;1.15;;
43327;SDS011;28923;45.412;10.852;2023-04-25T08:56:08;4.03;;;1.20;;
43327;SDS011;28923;45.412;10.852;2023-04-25T08:58:35;6.85;;;1.02;;
43327;SDS011;28923;45.412;10.852;2023-04-25T09:01:01;4.68;;;0.80;;
43327;SDS011;28923;45.412;10.852;2023-04-25T09:03:31;4.50;;;1.13;;
43327;SDS011;28923;45.412;10.852;2023-04-25T09:05:56;2.20;;;0.90;;
43327;SDS011;28923;45.412;10.852;2023-04-25T09:08:23;2.63;;;0.90;;
43327;SDS011;28923;45.412;10.852;2023-04-25T09:10:48;5.97;;;1.13;;
43327;SDS011;28923;45.412;10.852;2023-04-25T09:13:17;5.22;;;1.45;;
43327;SDS011;28923;45.412;10.852;2023-04-25T09:16:27;4.85;;;1.10;;
43327;SDS011;28923;45.412;10.852;2023-04-25T09:19:25;4.63;;;1.23;;
43327;SDS011;28923;45.412;10.852;2023-04-25T09:21:53;3.78;;;0.88;;
43327;SDS011;28923;45.412;10.852;2023-04-25T09:26:57;5.65;;;1.10;;
43327;SDS011;28923;45.412;10.852;2023-04-25T09:29:32;4.18;;;1.15;;
43327;SDS011;28923;45.412;10.852;2023-04-25T09:34:40;3.65;;;1.38;;
43327;SDS011;28923;45.412;10.852;2023-04-25T09:37:08;3.00;;;1.20;;
43327;SDS011;28923;45.412;10.852;2023-04-25T09:40:09;1.67;;;0.88;;
43327;SDS011;28923;45.412;10.852;2023-04-25T09:42:49;1.98;;;1.30;;
43327;SDS011;28923;45.412;10.852;2023-04-25T09:45:14;2.58;;;1.17;;
43327;SDS011;28923;45.412;10.852;2023-04-25T09:47:41;2.17;;;1.10;;
43327;SDS011;28923;45.412;10.852;2023-04-25T09:50:16;4.78;;;1.38;;
43327;SDS011;28923;45.412;10.852;2023-04-25T09:52:45;2.63;;;1.00;;
43327;SDS011;28923;45.412;10.852;2023-04-25T09:55:16;5.45;;;1.45;;
43327;SDS011;28923;45.412;10.852;2023-04-25T09:57:43;2.67;;;1.15;;
43327;SDS011;28923;45.412;10.852;2023-04-25T10:00:10;2.90;;;1.30;;
43327;SDS011;28923;45.412;10.852;2023-04-25T10:02:42;2.78;;;1.60;;
43327;SDS011;28923;45.412;10.852;2023-04-25T10:05:09;2.90;;;1.30;;
43327;SDS011;28923;45.412;10.852;2023-04-25T10:07:39;2.25;;;1.05;;
43327;SDS011;28923;45.412;10.852;2023-04-25T10:10:10;4.60;;;1.38;;
43327;SDS011;28923;45.412;10.852;2023-04-25T10:12:37;4.80;;;1.35;;
43327;SDS011;28923;45.412;10.852;2023-04-25T10:15:05;2.47;;;1.08;;
43327;SDS011;28923;45.412;10.852;2023-04-25T10:17:31;2.63;;;1.20;;
43327;SDS011;28923;45.412;10.852;2023-04-25T10:19:57;4.53;;;1.30;;
43327;SDS011;28923;45.412;10.852;2023-04-25T10:22:29;2.92;;;1.33;;
43327;SDS011;28923;45.412;10.852;2023-04-25T10:24:56;1.80;;;0.88;;
43327;SDS011;28923;45.412;10.852;2023-04-25T10:27:21;3.25;;;1.35;;
43327;SDS011;28923;45.412;10.852;2023-04-25T10:29:59;2.35;;;1.17;;
43327;SDS011;28923;45.412;10.852;2023-04-25T10:32:25;2.00;;;1.10;;
43327;SDS011;28923;45.412;10.852;2023-04-25T10:34:50;2.97;;;1.02;;
43327;SDS011;28923;45.412;10.852;2023-04-25T10:37:16;4.05;;;1.00;;
43327;SDS011;28923;45.412;10.852;2023-04-25T10:39:41;1.35;;;1.00;;
43327;SDS011;28923;45.412;10.852;2023-04-25T10:42:07;3.20;;;1.00;;
43327;SDS011;28923;45.412;10.852;2023-04-25T10:44:33;2.70;;;0.90;;
43327;SDS011;28923;45.412;10.852;2023-04-25T10:46:59;2.67;;;1.23;;
43327;SDS011;28923;45.412;10.852;2023-04-25T10:49:31;1.52;;;1.05;;
43327;SDS011;28923;45.412;10.852;2023-04-25T10:52:13;1.55;;;1.10;;
43327;SDS011;28923;45.412;10.852;2023-04-25T10:54:52;4.25;;;1.50;;
43327;SDS011;28923;45.412;10.852;2023-04-25T11:00:08;3.10;;;1.48;;
43327;SDS011;28923;45.412;10.852;2023-04-25T11:02:40;2.35;;;1.30;;
43327;SDS011;28923;45.412;10.852;2023-04-25T11:05:06;2.70;;;1.70;;
43327;SDS011;28923;45.412;10.852;2023-04-25T11:10:03;2.17;;;1.45;;
43327;SDS011;28923;45.412;10.852;2023-04-25T11:12:29;2.20;;;1.52;;
43327;SDS011;28923;45.412;10.852;2023-04-25T11:14:58;2.72;;;1.48;;
43327;SDS011;28923;45.412;10.852;2023-04-25T11:17:24;2.85;;;1.50;;
43327;SDS011;28923;45.412;10.852;2023-04-25T11:19:50;3.10;;;1.50;;
43327;SDS011;28923;45.412;10.852;2023-04-25T11:22:15;2.05;;;1.40;;
43327;SDS011;28923;45.412;10.852;2023-04-25T11:24:41;2.50;;;1.50;;
43327;SDS011;28923;45.412;10.852;2023-04-25T11:27:08;2.63;;;1.83;;
43327;SDS011;28923;45.412;10.852;2023-04-25T11:29:34;3.88;;;1.70;;
43327;SDS011;28923;45.412;10.852;2023-04-25T11:31:59;3.20;;;1.70;;
43327;SDS011;28923;45.412;10.852;2023-04-25T11:34:26;2.67;;;1.60;;
43327;SDS011;28923;45.412;10.852;2023-04-25T11:36:52;2.85;;;1.60;;
43327;SDS011;28923;45.412;10.852;2023-04-25T11:39:20;3.33;;;1.50;;
43327;SDS011;28923;45.412;10.852;2023-04-25T11:41:46;2.55;;;1.60;;
43327;SDS011;28923;45.412;10.852;2023-04-25T11:44:11;3.38;;;1.58;;
43327;SDS011;28923;45.412;10.852;2023-04-25T11:46:37;2.55;;;1.83;;
43327;SDS011;28923;45.412;10.852;2023-04-25T11:49:02;2.67;;;1.70;;
43327;SDS011;28923;45.412;10.852;2023-04-25T11:51:29;2.97;;;1.88;;
43327;SDS011;28923;45.412;10.852;2023-04-25T11:53:55;3.10;;;1.80;;
43327;SDS011;28923;45.412;10.852;2023-04-25T11:56:20;2.35;;;1.70;;
43327;SDS011;28923;45.412;10.852;2023-04-25T12:01:30;3.30;;;1.92;;
43327;SDS011;28923;45.412;10.852;2023-04-25T12:03:56;3.47;;;1.77;;
43327;SDS011;28923;45.412;10.852;2023-04-25T12:06:31;3.38;;;1.85;;
43327;SDS011;28923;45.412;10.852;2023-04-25T12:11:25;2.60;;;1.77;;
43327;SDS011;28923;45.412;10.852;2023-04-25T12:13:53;4.85;;;1.92;;
43327;SDS011;28923;45.412;10.852;2023-04-25T12:16:19;3.75;;;2.10;;
43327;SDS011;28923;45.412;10.852;2023-04-25T12:18:44;3.13;;;1.70;;
43327;SDS011;28923;45.412;10.852;2023-04-25T12:21:09;2.90;;;1.83;;
43327;SDS011;28923;45.412;10.852;2023-04-25T12:23:37;3.55;;;2.00;;
43327;SDS011;28923;45.412;10.852;2023-04-25T12:26:03;3.58;;;2.30;;
43327;SDS011;28923;45.412;10.852;2023-04-25T12:28:29;5.10;;;1.95;;
43327;SDS011;28923;45.412;10.852;2023-04-25T12:33:26;3.30;;;1.90;;
43327;SDS011;28923;45.412;10.852;2023-04-25T12:35:52;2.38;;;1.80;;
43327;SDS011;28923;45.412;10.852;2023-04-25T12:38:36;3.58;;;2.25;;
43327;SDS011;28923;45.412;10.852;2023-04-25T12:41:02;3.10;;;2.10;;
43327;SDS011;28923;45.412;10.852;2023-04-25T12:43:27;2.75;;;1.90;;
43327;SDS011;28923;45.412;10.852;2023-04-25T12:45:53;4.00;;;2.10;;
43327;SDS011;28923;45.412;10.852;2023-04-25T12:48:19;3.47;;;2.20;;
43327;SDS011;28923;45.412;10.852;2023-04-25T12:50:45;3.45;;;2.00;;
43327;SDS011;28923;45.412;10.852;2023-04-25T12:53:13;3.75;;;2.20;;
43327;SDS011;28923;45.412;10.852;2023-04-25T12:55:38;4.13;;;1.73;;
43327;SDS011;28923;45.412;10.852;2023-04-25T12:58:03;2.70;;;1.70;;
43327;SDS011;28923;45.412;10.852;2023-04-25T13:00:29;3.22;;;1.92;;
43327;SDS011;28923;45.412;10.852;2023-04-25T13:02:55;3.00;;;1.88;;
43327;SDS011;28923;45.412;10.852;2023-04-25T13:05:21;5.18;;;2.17;;
43327;SDS011;28923;45.412;10.852;2023-04-25T13:07:46;2.75;;;1.80;;
43327;SDS011;28923;45.412;10.852;2023-04-25T13:10:12;2.97;;;2.22;;
43327;SDS011;28923;45.412;10.852;2023-04-25T13:12:38;3.33;;;2.15;;
43327;SDS011;28923;45.412;10.852;2023-04-25T13:15:03;3.03;;;1.80;;
43327;SDS011;28923;45.412;10.852;2023-04-25T13:17:29;2.80;;;1.92;;
43327;SDS011;28923;45.412;10.852;2023-04-25T13:19:55;2.78;;;1.63;;
43327;SDS011;28923;45.412;10.852;2023-04-25T13:22:20;2.33;;;1.73;;
43327;SDS011;28923;45.412;10.852;2023-04-25T13:24:46;3.50;;;1.80;;
43327;SDS011;28923;45.412;10.852;2023-04-25T13:27:11;3.15;;;1.67;;
43327;SDS011;28923;45.412;10.852;2023-04-25T13:29:37;3.05;;;1.88;;
43327;SDS011;28923;45.412;10.852;2023-04-25T13:32:03;3.00;;;1.75;;
43327;SDS011;28923;45.412;10.852;2023-04-25T13:34:30;3.58;;;1.75;;
43327;SDS011;28923;45.412;10.852;2023-04-25T13:36:55;2.50;;;1.67;;
43327;SDS011;28923;45.412;10.852;2023-04-25T13:39:21;2.28;;;1.25;;
43327;SDS011;28923;45.412;10.852;2023-04-25T13:41:46;2.30;;;1.48;;
43327;SDS011;28923;45.412;10.852;2023-04-25T13:44:12;2.47;;;1.25;;
43327;SDS011;28923;45.412;10.852;2023-04-25T13:46:37;2.95;;;1.30;;
43327;SDS011;28923;45.412;10.852;2023-04-25T13:49:06;1.95;;;1.30;;
43327;SDS011;28923;45.412;10.852;2023-04-25T13:51:31;1.88;;;1.20;;
43327;SDS011;28923;45.412;10.852;2023-04-25T13:53:56;3.72;;;1.58;;
43327;SDS011;28923;45.412;10.852;2023-04-25T13:56:22;1.92;;;1.45;;
43327;SDS011;28923;45.412;10.852;2023-04-25T13:58:48;1.75;;;1.00;;
43327;SDS011;28923;45.412;10.852;2023-04-25T14:01:14;1.83;;;1.10;;
43327;SDS011;28923;45.412;10.852;2023-04-25T14:03:39;2.78;;;1.40;;
43327;SDS011;28923;45.412;10.852;2023-04-25T14:06:05;2.33;;;1.10;;
43327;SDS011;28923;45.412;10.852;2023-04-25T14:08:30;1.67;;;1.10;;
43327;SDS011;28923;45.412;10.852;2023-04-25T14:10:56;2.10;;;1.30;;
43327;SDS011;28923;45.412;10.852;2023-04-25T14:13:21;1.48;;;1.10;;
43327;SDS011;28923;45.412;10.852;2023-04-25T14:15:48;1.80;;;1.02;;
43327;SDS011;28923;45.412;10.852;2023-04-25T14:18:15;1.80;;;1.13;;
43327;SDS011;28923;45.412;10.852;2023-04-25T14:20:40;1.40;;;1.00;;
43327;SDS011;28923;45.412;10.852;2023-04-25T14:23:06;1.65;;;1.00;;
43327;SDS011;28923;45.412;10.852;2023-04-25T14:25:31;1.63;;;1.00;;
43327;SDS011;28923;45.412;10.852;2023-04-25T14:27:57;1.77;;;1.00;;
43327;SDS011;28923;45.412;10.852;2023-04-25T14:30:22;1.50;;;1.00;;
43327;SDS011;28923;45.412;10.852;2023-04-25T14:32:50;1.38;;;1.02;;
43327;SDS011;28923;45.412;10.852;2023-04-25T14:35:16;1.67;;;0.82;;
43327;SDS011;28923;45.412;10.852;2023-04-25T14:37:41;1.20;;;1.00;;
43327;SDS011;28923;45.412;10.852;2023-04-25T14:40:07;1.40;;;1.10;;
43327;SDS011;28923;45.412;10.852;2023-04-25T14:42:35;1.48;;;0.85;;
43327;SDS011;28923;45.412;10.852;2023-04-25T14:45:01;1.73;;;0.93;;
43327;SDS011;28923;45.412;10.852;2023-04-25T14:47:27;1.23;;;1.00;;
43327;SDS011;28923;45.412;10.852;2023-04-25T14:49:52;1.80;;;0.90;;
43327;SDS011;28923;45.412;10.852;2023-04-25T14:52:19;0.98;;;0.60;;
43327;SDS011;28923;45.412;10.852;2023-04-25T14:54:45;1.17;;;0.85;;
43327;SDS011;28923;45.412;10.852;2023-04-25T14:57:10;0.90;;;0.75;;
43327;SDS011;28923;45.412;10.852;2023-04-25T14:59:36;1.30;;;0.75;;
43327;SDS011;28923;45.412;10.852;2023-04-25T15:02:01;1.85;;;0.80;;
43327;SDS011;28923;45.412;10.852;2023-04-25T15:04:27;1.02;;;0.70;;